sensor_id;sensor_type;location;lat;lon;timestamp;pressure;altitude;pressure_sealevel;temperature;humidity
53940;BME280;39850;43.324;21.916;2023-01-31T00:02:09;991.0;;;2.7;74.0
53940;BME280;39850;43.324;21.916;2023-01-31T00:06:45;991.0;;;2.7;74.0
53940;BME280;39850;43.324;21.916;2023-01-31T00:11:28;991.0;;;2.6;73.0
53940;BME280;39850;43.324;21.916;2023-01-31T00:16:09;991.0;;;2.6;73.0
53940;BME280;39850;43.324;21.916;2023-01-31T00:53:05;991.0;;;3.6;72.0
53940;BME280;39850;43.324;21.916;2023-01-31T00:57:42;991.0;;;3.6;72.0
53940;BME280;39850;43.324;21.916;2023-01-31T01:02:18;991.0;;;3.6;72.0
53940;BME280;39850;43.324;21.916;2023-01-31T01:06:55;991.0;;;3.6;72.0
53940;BME280;39850;43.324;21.916;2023-01-31T01:11:34;991.0;;;3.6;72.0
53940;BME280;39850;43.324;21.916;2023-01-31T01:16:24;991.0;;;3.6;72.0
53940;BME280;39850;43.324;21.916;2023-01-31T01:21:19;991.0;;;3.6;71.0
53940;BME280;39850;43.324;21.916;2023-01-31T01:25:56;991.0;;;3.6;71.0
53940;BME280;39850;43.324;21.916;2023-01-31T01:30:32;991.0;;;3.6;71.0
53940;BME280;39850;43.324;21.916;2023-01-31T01:35:09;991.0;;;3.6;71.0
53940;BME280;39850;43.324;21.916;2023-01-31T01:39:47;991.0;;;3.6;71.0
53940;BME280;39850;43.324;21.916;2023-01-31T02:27:12;991.0;;;2.6;75.0
53940;BME280;39850;43.324;21.916;2023-01-31T02:33:10;991.0;;;2.7;75.0
53940;BME280;39850;43.324;21.916;2023-01-31T02:38:50;991.0;;;2.7;75.0
53940;BME280;39850;43.324;21.916;2023-01-31T02:44:01;991.0;;;2.7;75.0
53940;BME280;39850;43.324;21.916;2023-01-31T02:49:16;991.0;;;2.7;75.0
53940;BME280;39850;43.324;21.916;2023-01-31T02:54:24;991.0;;;2.8;74.0
53940;BME280;39850;43.324;21.916;2023-01-31T02:59:21;991.0;;;2.8;74.0
53940;BME280;39850;43.324;21.916;2023-01-31T03:43:40;992.0;;;3.5;74.0
53940;BME280;39850;43.324;21.916;2023-01-31T03:48:38;992.0;;;3.5;74.0
53940;BME280;39850;43.324;21.916;2023-01-31T03:53:40;992.0;;;3.5;74.0
53940;BME280;39850;43.324;21.916;2023-01-31T03:58:41;992.0;;;3.5;74.0
53940;BME280;39850;43.324;21.916;2023-01-31T04:03:44;992.0;;;3.5;74.0
53940;BME280;39850;43.324;21.916;2023-01-31T04:08:23;992.0;;;3.5;74.0
53940;BME280;39850;43.324;21.916;2023-01-31T04:12:59;992.0;;;3.5;74.0
53940;BME280;39850;43.324;21.916;2023-01-31T04:17:37;992.0;;;3.5;74.0
53940;BME280;39850;43.324;21.916;2023-01-31T04:54:31;991.0;;;3.5;74.0
53940;BME280;39850;43.324;21.916;2023-01-31T04:59:08;991.0;;;3.5;74.0
53940;BME280;39850;43.324;21.916;2023-01-31T05:03:44;991.0;;;3.5;74.0
53940;BME280;39850;43.324;21.916;2023-01-31T05:08:21;991.0;;;3.5;74.0
53940;BME280;39850;43.324;21.916;2023-01-31T05:12:57;991.0;;;3.5;75.0
53940;BME280;39850;43.324;21.916;2023-01-31T05:17:34;991.0;;;3.5;75.0
53940;BME280;39850;43.324;21.916;2023-01-31T05:22:10;992.0;;;3.5;76.0
53940;BME280;39850;43.324;21.916;2023-01-31T05:26:47;992.0;;;3.5;76.0
53940;BME280;39850;43.324;21.916;2023-01-31T05:31:24;992.0;;;3.5;76.0
53940;BME280;39850;43.324;21.916;2023-01-31T05:36:04;992.0;;;3.5;76.0
53940;BME280;39850;43.324;21.916;2023-01-31T06:22:08;992.0;;;3.1;82.0
53940;BME280;39850;43.324;21.916;2023-01-31T06:26:45;992.0;;;3.1;82.0
53940;BME280;39850;43.324;21.916;2023-01-31T06:31:22;992.0;;;3.1;82.0
53940;BME280;39850;43.324;21.916;2023-01-31T06:36:00;992.0;;;3.1;82.0
53940;BME280;39850;43.324;21.916;2023-01-31T06:40:37;992.0;;;3.1;82.0
53940;BME280;39850;43.324;21.916;2023-01-31T06:45:14;992.0;;;3.1;82.0
53940;BME280;39850;43.324;21.916;2023-01-31T06:49:51;992.0;;;3.1;82.0
53940;BME280;39850;43.324;21.916;2023-01-31T06:54:27;992.0;;;3.1;82.0
53940;BME280;39850;43.324;21.916;2023-01-31T06:59:04;992.0;;;3.1;82.0
53940;BME280;39850;43.324;21.916;2023-01-31T07:31:21;992.0;;;2.7;87.0
53940;BME280;39850;43.324;21.916;2023-01-31T07:35:57;992.0;;;2.7;87.0
53940;BME280;39850;43.324;21.916;2023-01-31T07:40:35;992.0;;;2.7;87.0
53940;BME280;39850;43.324;21.916;2023-01-31T07:45:16;992.0;;;2.7;87.0
53940;BME280;39850;43.324;21.916;2023-01-31T07:49:52;992.0;;;2.7;87.0
53940;BME280;39850;43.324;21.916;2023-01-31T07:54:29;992.0;;;2.7;87.0
53940;BME280;39850;43.324;21.916;2023-01-31T07:59:05;992.0;;;2.7;87.0
53940;BME280;39850;43.324;21.916;2023-01-31T08:54:50;993.0;;;2.5;87.0
53940;BME280;39850;43.324;21.916;2023-01-31T08:59:27;993.0;;;2.5;87.0
53940;BME280;39850;43.324;21.916;2023-01-31T09:04:04;993.0;;;2.5;88.0
53940;BME280;39850;43.324;21.916;2023-01-31T09:08:40;993.0;;;2.5;88.0
53940;BME280;39850;43.324;21.916;2023-01-31T09:13:17;993.0;;;2.5;87.0
53940;BME280;39850;43.324;21.916;2023-01-31T09:17:54;993.0;;;2.5;87.0
53940;BME280;39850;43.324;21.916;2023-01-31T09:22:31;993.0;;;2.5;88.0
53940;BME280;39850;43.324;21.916;2023-01-31T09:27:08;993.0;;;2.5;88.0
53940;BME280;39850;43.324;21.916;2023-01-31T09:31:45;993.0;;;2.5;87.0
53940;BME280;39850;43.324;21.916;2023-01-31T09:36:23;993.0;;;2.5;87.0
53940;BME280;39850;43.324;21.916;2023-01-31T09:41:24;993.0;;;2.5;87.0
53940;BME280;39850;43.324;21.916;2023-01-31T11:53:51;992.0;;;4.5;82.0
53940;BME280;39850;43.324;21.916;2023-01-31T11:58:48;992.0;;;4.5;82.0
53940;BME280;39850;43.324;21.916;2023-01-31T12:03:31;992.0;;;4.5;82.0
53940;BME280;39850;43.324;21.916;2023-01-31T12:08:37;992.0;;;4.5;82.0
53940;BME280;39850;43.324;21.916;2023-01-31T12:13:20;992.0;;;4.5;82.0
53940;BME280;39850;43.324;21.916;2023-01-31T12:18:00;992.0;;;4.5;82.0
53940;BME280;39850;43.324;21.916;2023-01-31T14:25:39;993.0;;;4.4;82.0
53940;BME280;39850;43.324;21.916;2023-01-31T14:30:43;993.0;;;4.4;82.0
53940;BME280;39850;43.324;21.916;2023-01-31T14:36:54;993.0;;;4.4;82.0
53940;BME280;39850;43.324;21.916;2023-01-31T14:43:56;993.0;;;4.4;82.0
53940;BME280;39850;43.324;21.916;2023-01-31T14:50:10;993.0;;;4.4;82.0
53940;BME280;39850;43.324;21.916;2023-01-31T14:55:48;993.0;;;4.5;82.0
53940;BME280;39850;43.324;21.916;2023-01-31T15:00:50;993.0;;;4.5;82.0
53940;BME280;39850;43.324;21.916;2023-01-31T18:33:49;995.0;;;2.8;90.0
53940;BME280;39850;43.324;21.916;2023-01-31T18:38:29;995.0;;;2.8;90.0
53940;BME280;39850;43.324;21.916;2023-01-31T18:43:06;995.0;;;2.8;90.0
53940;BME280;39850;43.324;21.916;2023-01-31T18:47:42;995.0;;;2.8;90.0
53940;BME280;39850;43.324;21.916;2023-01-31T18:52:18;995.0;;;2.8;90.0
53940;BME280;39850;43.324;21.916;2023-01-31T18:56:54;995.0;;;2.8;90.0
53940;BME280;39850;43.324;21.916;2023-01-31T19:01:31;995.0;;;2.8;90.0
53940;BME280;39850;43.324;21.916;2023-01-31T22:34:28;996.0;;;2.7;89.0
53940;BME280;39850;43.324;21.916;2023-01-31T22:39:11;996.0;;;2.7;89.0
53940;BME280;39850;43.324;21.916;2023-01-31T22:43:52;996.0;;;2.7;89.0
53940;BME280;39850;43.324;21.916;2023-01-31T22:48:29;996.0;;;2.7;89.0
53940;BME280;39850;43.324;21.916;2023-01-31T22:53:09;996.0;;;2.7;89.0
53940;BME280;39850;43.324;21.916;2023-01-31T22:57:46;996.0;;;2.7;89.0
53940;BME280;39850;43.324;21.916;2023-01-31T23:02:22;996.0;;;2.7;89.0
53940;BME280;39850;43.324;21.916;2023-01-31T23:48:55;996.0;;;4.5;78.0
53940;BME280;39850;43.324;21.916;2023-01-31T23:53:32;996.0;;;4.5;78.0
53940;BME280;39850;43.324;21.916;2023-01-31T23:58:09;996.0;;;4.5;78.0
